Airport View

Enter AWOS ICAO identifier for current METAR.

ex. KFNL

KOLV 250145Z AUTO 12003KT 10SM CLR 26/22 A2993 RMK A01

25 May 2020 01:49

Frequency: 119.925

Phone: 662-893-5906

Other Area AWOS: KMEM - KNQA - KFYE - KAWM

TAF KMEM 242340Z 2500/2606 16008KT P6SM FEW040 FM250200 16004KT P6SM VCSH FEW040 FEW250 FM251100 14006KT P6SM FEW050 FEW250 FM252000 15005KT 6SM SHRA VCTS SCT090CB OVC250